createdAt,value
2023-05-09T08:59:55.918Z,59.93
2023-05-09T09:02:22.920Z,59.12
2023-05-09T09:04:50.075Z,59.49
2023-05-09T09:07:17.721Z,58.66
2023-05-09T09:09:47.185Z,57.22
2023-05-09T09:12:16.307Z,57.23
2023-05-09T09:14:49.141Z,56.85
2023-05-09T09:17:19.177Z,58.43
2023-05-09T09:19:50.183Z,56.80
2023-05-09T09:22:19.766Z,57.06
2023-05-09T09:24:46.784Z,57.25
2023-05-09T09:27:13.769Z,56.81
2023-05-09T09:29:40.577Z,58.50
2023-05-09T09:32:07.944Z,58.49
2023-05-09T09:34:36.938Z,57.50
2023-05-09T09:37:05.919Z,56.22
2023-05-09T09:39:32.882Z,55.68
2023-05-09T09:42:10.577Z,56.25
2023-05-09T09:44:37.622Z,56.62
2023-05-09T09:47:10.115Z,56.48
2023-05-09T09:49:36.892Z,55.30
2023-05-09T09:52:03.654Z,54.72
2023-05-09T09:54:31.467Z,54.58
2023-05-09T09:56:58.336Z,54.81
2023-05-09T09:59:26.796Z,54.35
2023-05-09T10:02:01.267Z,55.21
2023-05-09T10:04:33.975Z,55.60
2023-05-09T10:07:04.066Z,55.36
2023-05-09T10:09:31.690Z,55.70
2023-05-09T10:12:03.589Z,55.88
2023-05-09T10:14:33.597Z,55.04
2023-05-09T10:17:04.209Z,55.09
2023-05-09T10:19:31.673Z,54.80
2023-05-09T10:22:03.833Z,54.81
2023-05-09T10:24:34.839Z,54.95
2023-05-09T10:27:30.355Z,54.98
2023-05-09T10:30:06.638Z,54.78
2023-05-09T10:32:52.601Z,54.93
2023-05-09T10:35:29.482Z,56.12
2023-05-09T10:37:57.272Z,54.79
2023-05-09T10:40:25.082Z,54.26
2023-05-09T10:42:52.033Z,55.54
2023-05-09T10:45:21.210Z,55.93
2023-05-09T10:47:50.049Z,55.00
2023-05-09T10:50:17.358Z,53.69
2023-05-09T10:53:03.277Z,54.76
2023-05-09T10:55:50.330Z,55.01
2023-05-09T10:58:21.251Z,54.63
2023-05-09T11:00:53.501Z,54.55
2023-05-09T11:03:24.131Z,54.90
2023-05-09T11:05:53.995Z,54.83
2023-05-09T11:08:22.570Z,54.27
2023-05-09T11:10:49.586Z,53.76
2023-05-09T11:13:25.093Z,54.12
2023-05-09T11:16:01.357Z,54.71
2023-05-09T11:18:29.055Z,55.68
2023-05-09T11:20:56.107Z,55.76
2023-05-09T11:23:27.229Z,54.84
2023-05-09T11:26:04.818Z,55.05
2023-05-09T11:28:35.006Z,54.38
2023-05-09T11:31:17.398Z,54.52
2023-05-09T11:33:47.185Z,55.00
2023-05-09T11:36:32.757Z,55.13
2023-05-09T11:39:08.120Z,54.50
2023-05-09T11:41:46.516Z,56.04
2023-05-09T11:44:17.400Z,56.32
2023-05-09T11:46:45.313Z,56.70
2023-05-09T11:49:12.470Z,56.24
2023-05-09T11:51:40.161Z,55.11
2023-05-09T11:54:08.540Z,56.20
2023-05-09T11:56:37.457Z,56.00
2023-05-09T11:59:04.304Z,55.49
2023-05-09T12:01:31.227Z,56.59
2023-05-09T12:03:58.758Z,56.99
2023-05-09T12:06:25.864Z,56.75
2023-05-09T12:08:54.934Z,56.15
2023-05-09T12:11:23.273Z,57.59
2023-05-09T12:13:52.031Z,56.76
2023-05-09T12:16:20.496Z,57.61
2023-05-09T12:18:49.814Z,57.64
2023-05-09T12:21:18.080Z,58.46
2023-05-09T12:23:47.880Z,58.30
2023-05-09T12:26:16.963Z,58.14
2023-05-09T12:28:47.095Z,58.61
2023-05-09T12:31:14.335Z,58.20
2023-05-09T12:33:41.321Z,57.83
2023-05-09T12:36:10.584Z,58.21
2023-05-09T12:38:37.959Z,59.40
2023-05-09T12:41:18.887Z,59.72
2023-05-09T12:43:56.434Z,58.68
2023-05-09T12:46:23.695Z,58.54
2023-05-09T12:48:51.142Z,59.41
2023-05-09T12:51:20.244Z,58.95
2023-05-09T12:53:48.403Z,57.97
2023-05-09T12:56:17.634Z,58.24
2023-05-09T12:58:52.170Z,58.48
2023-05-09T13:01:20.684Z,58.45
2023-05-09T13:04:04.209Z,57.26
2023-05-09T13:06:31.746Z,58.06
2023-05-09T13:09:00.695Z,56.73
2023-05-09T13:11:28.047Z,56.55
2023-05-09T13:13:55.093Z,56.79
2023-05-09T13:16:22.022Z,56.55
2023-05-09T13:18:48.888Z,57.17
2023-05-09T13:21:15.761Z,57.90
2023-05-09T13:23:43.914Z,55.67
2023-05-09T13:26:10.888Z,56.06
2023-05-09T13:28:37.728Z,56.78
2023-05-09T13:31:04.555Z,56.31
2023-05-09T13:33:31.530Z,56.78
2023-05-09T13:35:58.313Z,56.26
2023-05-09T13:38:25.284Z,55.79
2023-05-09T13:40:52.059Z,56.56
2023-05-09T13:43:18.963Z,56.69
2023-05-09T13:45:45.767Z,55.63
2023-05-09T13:48:12.721Z,55.90
2023-05-09T13:50:39.566Z,56.45
2023-05-09T13:53:06.428Z,55.56
2023-05-09T13:55:33.944Z,54.73
2023-05-09T13:58:01.094Z,55.01
2023-05-09T14:00:28.832Z,55.11
2023-05-09T14:02:55.745Z,55.12
2023-05-09T14:05:22.688Z,53.97
2023-05-09T14:07:49.625Z,54.89
2023-05-09T14:10:16.757Z,56.25
2023-05-09T14:12:44.802Z,54.04
2023-05-09T14:15:11.785Z,53.73
2023-05-09T14:17:39.424Z,54.83
2023-05-09T14:20:07.555Z,55.60
2023-05-09T14:22:34.347Z,55.05
2023-05-09T14:25:01.273Z,54.99
2023-05-09T14:27:28.188Z,55.51
2023-05-09T14:29:55.625Z,55.27
2023-05-09T14:32:22.435Z,54.84
2023-05-09T14:34:49.416Z,55.95
2023-05-09T14:37:16.345Z,55.57
2023-05-09T14:39:44.483Z,55.33
2023-05-09T14:42:13.323Z,55.37
2023-05-09T14:44:40.874Z,54.99
2023-05-09T14:47:08.940Z,55.57
2023-05-09T14:49:39.246Z,56.45
2023-05-09T14:52:06.138Z,56.65
2023-05-09T14:54:33.054Z,57.89
2023-05-09T14:57:01.321Z,58.38
2023-05-09T14:59:28.091Z,57.46
2023-05-09T15:01:54.897Z,57.96
2023-05-09T15:04:22.494Z,57.89
2023-05-09T15:06:49.374Z,58.13
2023-05-09T15:09:16.259Z,57.74
2023-05-09T15:11:48.161Z,58.17
2023-05-09T15:14:16.076Z,57.88
2023-05-09T15:16:42.953Z,58.16
2023-05-09T15:19:09.965Z,58.35
2023-05-09T15:21:36.776Z,59.20
2023-05-09T15:24:04.376Z,59.62
2023-05-09T15:26:31.545Z,59.95
2023-05-09T15:28:58.345Z,59.90
2023-05-09T15:31:25.506Z,60.02
2023-05-09T15:33:52.545Z,60.50
2023-05-09T15:36:19.426Z,61.02
2023-05-09T15:38:48.580Z,60.67
2023-05-09T15:41:15.454Z,60.87
2023-05-09T15:43:42.361Z,61.20
2023-05-09T15:46:09.248Z,61.30
2023-05-09T15:48:36.091Z,61.63
2023-05-09T15:51:03.489Z,61.87
2023-05-09T15:53:30.295Z,61.99
2023-05-09T15:55:57.150Z,61.56
2023-05-09T15:58:23.887Z,61.44
2023-05-09T16:00:50.928Z,61.89
2023-05-09T16:03:18.757Z,62.35
2023-05-09T16:05:45.678Z,62.80
2023-05-09T16:08:12.601Z,62.75
2023-05-09T16:10:40.212Z,62.68
2023-05-09T16:13:07.441Z,62.58
2023-05-09T16:15:34.919Z,62.33
2023-05-09T16:18:01.831Z,62.76
2023-05-09T16:20:28.637Z,63.87
2023-05-09T16:22:55.477Z,63.51
2023-05-09T16:25:22.842Z,63.67
2023-05-09T16:27:49.715Z,63.44
2023-05-09T16:30:17.083Z,64.30
2023-05-09T16:32:44.205Z,64.60
2023-05-09T16:35:11.077Z,64.61
2023-05-09T16:37:38.021Z,65.07
2023-05-09T16:40:05.564Z,65.30
2023-05-09T16:42:32.419Z,65.18
2023-05-09T16:44:59.469Z,65.12
2023-05-09T16:47:26.328Z,65.29
2023-05-09T16:49:53.137Z,65.34
2023-05-09T16:52:19.973Z,66.03
2023-05-09T16:54:48.503Z,66.60
2023-05-09T16:57:15.716Z,66.37
2023-05-09T16:59:42.610Z,66.55
2023-05-09T17:02:09.384Z,66.94
2023-05-09T17:04:37.770Z,67.63
2023-05-09T17:07:04.992Z,67.49
2023-05-09T17:09:32.139Z,67.95
2023-05-09T17:11:59.979Z,68.25
2023-05-09T17:14:26.999Z,69.13
2023-05-09T17:16:54.290Z,69.85
2023-05-09T17:19:22.764Z,69.99
2023-05-09T17:21:50.109Z,70.00
2023-05-09T17:24:17.324Z,68.59
2023-05-09T17:26:44.348Z,68.11
2023-05-09T17:29:11.258Z,67.78
2023-05-09T17:31:38.113Z,67.83
2023-05-09T17:34:04.920Z,68.76
2023-05-09T17:36:33.001Z,69.09
2023-05-09T17:39:00.202Z,69.26
2023-05-09T17:41:27.092Z,69.82
2023-05-09T17:43:56.504Z,70.04
2023-05-09T17:46:23.494Z,70.79
2023-05-09T17:48:50.293Z,71.17
2023-05-09T17:51:17.177Z,70.90
2023-05-09T17:53:44.076Z,71.32
2023-05-09T17:56:11.045Z,71.30
2023-05-09T17:58:37.835Z,71.81
2023-05-09T18:01:05.127Z,71.94
2023-05-09T18:03:32.372Z,72.40
2023-05-09T18:05:59.783Z,72.01
2023-05-09T18:08:27.020Z,72.11
2023-05-09T18:10:54.082Z,72.38
2023-05-09T18:13:21.067Z,72.49
2023-05-09T18:15:48.143Z,72.64
2023-05-09T18:18:16.184Z,72.73
2023-05-09T18:20:45.585Z,72.71
2023-05-09T18:23:14.586Z,72.91
2023-05-09T18:25:41.729Z,72.99
2023-05-09T18:28:09.031Z,73.31
2023-05-09T18:30:36.648Z,73.28
2023-05-09T18:33:03.595Z,73.33
2023-05-09T18:35:30.986Z,73.98
2023-05-09T18:37:58.084Z,74.02
2023-05-09T18:40:24.911Z,74.12
2023-05-09T18:42:51.872Z,74.33
2023-05-09T18:45:18.871Z,74.75
2023-05-09T18:47:45.769Z,74.68
2023-05-09T18:50:13.424Z,74.50
2023-05-09T18:52:40.654Z,74.35
2023-05-09T18:55:08.414Z,74.55
2023-05-09T18:57:35.362Z,74.73
2023-05-09T19:00:02.370Z,74.53
2023-05-09T19:02:29.573Z,74.52
2023-05-09T19:04:56.573Z,74.79
2023-05-09T19:07:23.597Z,74.97
2023-05-09T19:09:50.820Z,75.22
2023-05-09T19:12:18.427Z,75.16
2023-05-09T19:17:16.528Z,75.04
2023-05-09T19:19:44.797Z,75.41
2023-05-09T19:22:13.895Z,75.32
2023-05-09T19:24:42.886Z,75.17
2023-05-09T19:27:13.820Z,74.68
2023-05-09T19:40:26.537Z,74.58
2023-05-09T19:42:55.023Z,74.86
2023-05-09T19:45:23.296Z,74.72
2023-05-09T19:47:51.949Z,74.66
2023-05-09T19:50:20.667Z,74.86
2023-05-09T19:52:49.049Z,75.54
2023-05-09T19:55:17.323Z,75.56
2023-05-09T19:57:45.600Z,75.79
2023-05-09T20:00:14.883Z,76.58
2023-05-09T20:02:43.323Z,76.54
2023-05-09T20:05:11.761Z,76.42
2023-05-09T20:07:40.041Z,76.54
2023-05-09T20:10:09.534Z,76.80
2023-05-09T20:12:37.839Z,77.07
2023-05-09T20:15:08.091Z,77.08
2023-05-09T20:17:36.389Z,76.94
2023-05-09T20:20:06.313Z,77.19
2023-05-09T20:22:34.489Z,77.43
2023-05-09T20:25:02.663Z,77.78
2023-05-09T20:27:30.938Z,77.26
2023-05-09T20:29:59.317Z,77.19
2023-05-09T20:32:28.451Z,77.35
2023-05-09T20:34:57.201Z,77.38
2023-05-09T20:37:25.474Z,77.13
2023-05-09T20:39:53.749Z,77.14
2023-05-09T20:42:23.664Z,77.06
2023-05-09T20:44:53.165Z,77.27
2023-05-09T20:47:21.521Z,77.27
2023-05-09T20:49:50.025Z,77.15
2023-05-09T20:52:18.194Z,77.21
2023-05-09T20:54:47.509Z,77.10
2023-05-09T20:57:15.932Z,77.30
2023-05-09T20:59:44.469Z,77.40
2023-05-09T21:02:13.845Z,77.66
2023-05-09T21:04:42.252Z,77.36
2023-05-09T21:07:10.620Z,77.34
2023-05-09T21:09:39.198Z,77.67
2023-05-09T21:12:09.268Z,78.11
2023-05-09T21:14:39.434Z,78.16
2023-05-09T21:17:07.826Z,77.93
2023-05-09T21:19:36.302Z,78.11
2023-05-09T21:22:04.466Z,78.15
2023-05-09T21:24:32.662Z,78.21
2023-05-09T21:27:01.112Z,78.05
2023-05-09T21:29:29.394Z,78.17
2023-05-09T21:31:57.670Z,77.88
2023-05-09T21:34:25.958Z,78.05
2023-05-09T21:36:54.425Z,78.45
2023-05-09T21:39:22.599Z,78.54
2023-05-09T21:41:51.177Z,78.27
2023-05-09T21:44:19.341Z,78.14
2023-05-09T21:46:47.591Z,78.10
2023-05-09T21:49:21.607Z,78.45
2023-05-09T21:51:50.115Z,78.25
2023-05-09T21:54:18.388Z,78.28
2023-05-09T21:56:47.279Z,78.26
2023-05-09T21:59:17.801Z,79.08
2023-05-09T22:01:46.610Z,79.50
2023-05-09T22:04:15.806Z,79.52
2023-05-09T22:06:44.088Z,79.56
2023-05-09T22:09:12.544Z,79.14
2023-05-09T22:11:41.127Z,79.42
2023-05-09T22:14:10.461Z,79.67
2023-05-09T22:16:38.936Z,79.55
2023-05-09T22:19:07.492Z,79.10
2023-05-09T22:21:36.073Z,78.98
2023-05-09T22:24:04.842Z,79.21
2023-05-09T22:26:33.437Z,79.69
2023-05-09T22:29:01.813Z,79.51
2023-05-09T22:31:30.274Z,79.61
2023-05-09T22:33:58.462Z,79.11
2023-05-09T22:36:27.054Z,79.68
2023-05-09T22:38:55.222Z,79.90
2023-05-09T22:41:23.700Z,79.56
2023-05-09T22:43:51.881Z,79.38
2023-05-09T22:46:20.440Z,79.41
2023-05-09T22:48:48.963Z,79.47
2023-05-09T22:51:17.317Z,79.81
2023-05-09T22:53:45.799Z,79.74
2023-05-09T22:56:14.580Z,79.32
2023-05-09T22:58:42.768Z,79.13
2023-05-09T23:01:11.791Z,79.49
2023-05-09T23:03:40.305Z,79.56
2023-05-09T23:06:08.816Z,79.45
2023-05-09T23:08:37.297Z,79.38
2023-05-09T23:11:05.580Z,79.06
2023-05-09T23:13:33.940Z,79.38
2023-05-09T23:16:02.888Z,79.32
2023-05-09T23:18:31.313Z,79.17
2023-05-09T23:20:59.590Z,79.09
2023-05-09T23:23:27.871Z,78.63
2023-05-09T23:25:56.246Z,79.23
2023-05-09T23:28:25.463Z,79.56
2023-05-09T23:30:54.627Z,79.55
2023-05-09T23:33:23.114Z,79.21
2023-05-09T23:35:51.500Z,79.29
2023-05-09T23:38:20.185Z,79.19
2023-05-09T23:40:48.463Z,79.24
2023-05-09T23:43:18.277Z,79.36
2023-05-09T23:45:46.440Z,79.10
2023-05-09T23:48:14.813Z,78.86
2023-05-09T23:50:43.088Z,79.35
2023-05-09T23:53:12.193Z,79.42
2023-05-09T23:55:40.363Z,79.32
2023-05-09T23:58:08.939Z,79.18
